sensor_id;sensor_type;location;lat;lon;timestamp;temperature;humidity
4695;DHT22;2361;49.540;8.390;2022-10-16T00:01:39;16.80;99.90
4695;DHT22;2361;49.540;8.390;2022-10-16T00:04:06;16.80;99.90
4695;DHT22;2361;49.540;8.390;2022-10-16T00:06:34;16.80;99.90
4695;DHT22;2361;49.540;8.390;2022-10-16T00:09:01;16.80;99.90
4695;DHT22;2361;49.540;8.390;2022-10-16T00:11:31;16.80;99.90
4695;DHT22;2361;49.540;8.390;2022-10-16T00:14:01;16.80;99.90
4695;DHT22;2361;49.540;8.390;2022-10-16T00:16:29;16.90;99.90
4695;DHT22;2361;49.540;8.390;2022-10-16T00:18:56;16.80;99.90
4695;DHT22;2361;49.540;8.390;2022-10-16T00:21:26;16.80;99.90
4695;DHT22;2361;49.540;8.390;2022-10-16T00:23:57;16.80;99.90
4695;DHT22;2361;49.540;8.390;2022-10-16T00:26:29;16.80;99.90
4695;DHT22;2361;49.540;8.390;2022-10-16T00:28:58;16.80;99.90
4695;DHT22;2361;49.540;8.390;2022-10-16T00:31:26;16.90;99.90
4695;DHT22;2361;49.540;8.390;2022-10-16T00:33:53;16.90;99.90
4695;DHT22;2361;49.540;8.390;2022-10-16T00:36:22;16.90;99.90
4695;DHT22;2361;49.540;8.390;2022-10-16T00:38:54;16.90;99.90
4695;DHT22;2361;49.540;8.390;2022-10-16T00:41:24;16.90;99.90
4695;DHT22;2361;49.540;8.390;2022-10-16T00:43:57;16.90;99.90
4695;DHT22;2361;49.540;8.390;2022-10-16T00:46:40;16.80;99.90
4695;DHT22;2361;49.540;8.390;2022-10-16T00:49:14;16.80;99.90
4695;DHT22;2361;49.540;8.390;2022-10-16T00:51:45;16.80;99.90
4695;DHT22;2361;49.540;8.390;2022-10-16T00:54:26;16.80;99.90
4695;DHT22;2361;49.540;8.390;2022-10-16T00:56:56;16.90;99.90
4695;DHT22;2361;49.540;8.390;2022-10-16T00:59:40;16.90;99.90
4695;DHT22;2361;49.540;8.390;2022-10-16T01:02:11;16.90;99.90
4695;DHT22;2361;49.540;8.390;2022-10-16T01:04:45;16.90;99.90
4695;DHT22;2361;49.540;8.390;2022-10-16T01:13:35;16.90;99.90
4695;DHT22;2361;49.540;8.390;2022-10-16T01:18:43;16.90;99.90
4695;DHT22;2361;49.540;8.390;2022-10-16T01:21:16;17.00;99.90
4695;DHT22;2361;49.540;8.390;2022-10-16T01:24:12;17.00;99.90
4695;DHT22;2361;49.540;8.390;2022-10-16T01:27:05;17.00;99.90
4695;DHT22;2361;49.540;8.390;2022-10-16T01:29:39;17.00;99.90
4695;DHT22;2361;49.540;8.390;2022-10-16T01:32:39;17.00;99.90
4695;DHT22;2361;49.540;8.390;2022-10-16T01:37:53;17.00;99.90
4695;DHT22;2361;49.540;8.390;2022-10-16T01:40:26;17.00;99.90
4695;DHT22;2361;49.540;8.390;2022-10-16T01:43:02;17.00;99.90
4695;DHT22;2361;49.540;8.390;2022-10-16T01:45:39;17.00;99.90
4695;DHT22;2361;49.540;8.390;2022-10-16T01:48:09;17.00;99.90
4695;DHT22;2361;49.540;8.390;2022-10-16T01:50:39;17.00;99.90
4695;DHT22;2361;49.540;8.390;2022-10-16T01:53:10;16.90;99.90
4695;DHT22;2361;49.540;8.390;2022-10-16T01:55:43;16.90;99.90
4695;DHT22;2361;49.540;8.390;2022-10-16T01:58:13;16.90;99.90
4695;DHT22;2361;49.540;8.390;2022-10-16T02:00:43;16.90;99.90
4695;DHT22;2361;49.540;8.390;2022-10-16T02:03:15;16.90;99.90
4695;DHT22;2361;49.540;8.390;2022-10-16T02:05:46;16.90;99.90
4695;DHT22;2361;49.540;8.390;2022-10-16T02:08:23;16.90;99.90
4695;DHT22;2361;49.540;8.390;2022-10-16T02:10:52;16.90;99.90
4695;DHT22;2361;49.540;8.390;2022-10-16T02:15:53;16.80;99.90
4695;DHT22;2361;49.540;8.390;2022-10-16T02:18:20;16.80;99.90
4695;DHT22;2361;49.540;8.390;2022-10-16T02:24:32;16.70;99.90
4695;DHT22;2361;49.540;8.390;2022-10-16T02:29:52;16.60;99.90
4695;DHT22;2361;49.540;8.390;2022-10-16T02:32:28;16.60;99.90
4695;DHT22;2361;49.540;8.390;2022-10-16T02:34:58;16.50;99.90
4695;DHT22;2361;49.540;8.390;2022-10-16T02:37:26;16.50;99.90
4695;DHT22;2361;49.540;8.390;2022-10-16T02:39:55;16.40;99.90
4695;DHT22;2361;49.540;8.390;2022-10-16T02:42:29;16.50;99.90
4695;DHT22;2361;49.540;8.390;2022-10-16T02:44:59;16.50;99.90
4695;DHT22;2361;49.540;8.390;2022-10-16T02:47:26;16.50;99.90
4695;DHT22;2361;49.540;8.390;2022-10-16T02:49:53;16.50;99.90
4695;DHT22;2361;49.540;8.390;2022-10-16T02:52:20;16.50;99.90
4695;DHT22;2361;49.540;8.390;2022-10-16T02:54:47;16.50;99.90
4695;DHT22;2361;49.540;8.390;2022-10-16T02:57:14;16.50;99.90
4695;DHT22;2361;49.540;8.390;2022-10-16T02:59:41;16.60;99.90
4695;DHT22;2361;49.540;8.390;2022-10-16T03:02:08;16.60;99.90
4695;DHT22;2361;49.540;8.390;2022-10-16T03:04:36;16.60;99.90
4695;DHT22;2361;49.540;8.390;2022-10-16T03:07:03;16.60;99.90
4695;DHT22;2361;49.540;8.390;2022-10-16T03:09:31;16.60;99.90
4695;DHT22;2361;49.540;8.390;2022-10-16T03:11:58;16.50;99.90
4695;DHT22;2361;49.540;8.390;2022-10-16T03:14:25;16.50;99.90
4695;DHT22;2361;49.540;8.390;2022-10-16T03:16:51;16.50;99.90
4695;DHT22;2361;49.540;8.390;2022-10-16T03:19:18;16.60;99.90
4695;DHT22;2361;49.540;8.390;2022-10-16T03:21:46;16.60;99.90
4695;DHT22;2361;49.540;8.390;2022-10-16T03:24:13;16.60;99.90
4695;DHT22;2361;49.540;8.390;2022-10-16T03:26:40;16.60;99.90
4695;DHT22;2361;49.540;8.390;2022-10-16T03:29:07;16.70;99.90
4695;DHT22;2361;49.540;8.390;2022-10-16T03:31:34;16.60;99.90
4695;DHT22;2361;49.540;8.390;2022-10-16T03:34:01;16.70;99.90
4695;DHT22;2361;49.540;8.390;2022-10-16T03:36:27;16.70;99.90
4695;DHT22;2361;49.540;8.390;2022-10-16T03:38:54;16.70;99.90
4695;DHT22;2361;49.540;8.390;2022-10-16T03:41:21;16.70;99.90
4695;DHT22;2361;49.540;8.390;2022-10-16T03:43:48;16.70;99.90
4695;DHT22;2361;49.540;8.390;2022-10-16T03:46:15;16.70;99.90
4695;DHT22;2361;49.540;8.390;2022-10-16T03:48:42;16.70;99.90
4695;DHT22;2361;49.540;8.390;2022-10-16T03:51:09;16.70;99.90
4695;DHT22;2361;49.540;8.390;2022-10-16T03:53:36;16.80;99.90
4695;DHT22;2361;49.540;8.390;2022-10-16T03:56:03;16.70;99.90
4695;DHT22;2361;49.540;8.390;2022-10-16T03:58:30;16.80;99.90
4695;DHT22;2361;49.540;8.390;2022-10-16T04:00:56;16.80;99.90
4695;DHT22;2361;49.540;8.390;2022-10-16T04:03:23;16.80;99.90
4695;DHT22;2361;49.540;8.390;2022-10-16T04:05:50;16.80;99.90
4695;DHT22;2361;49.540;8.390;2022-10-16T04:08:17;16.80;99.90
4695;DHT22;2361;49.540;8.390;2022-10-16T04:10:45;16.80;99.90
4695;DHT22;2361;49.540;8.390;2022-10-16T04:13:12;16.70;99.90
4695;DHT22;2361;49.540;8.390;2022-10-16T04:15:39;16.70;99.90
4695;DHT22;2361;49.540;8.390;2022-10-16T04:18:06;16.70;99.90
4695;DHT22;2361;49.540;8.390;2022-10-16T04:20:33;16.70;99.90
4695;DHT22;2361;49.540;8.390;2022-10-16T04:23:00;16.70;99.90
4695;DHT22;2361;49.540;8.390;2022-10-16T04:25:27;16.70;99.90
4695;DHT22;2361;49.540;8.390;2022-10-16T04:27:54;16.60;99.90
4695;DHT22;2361;49.540;8.390;2022-10-16T04:30:22;16.60;99.90
4695;DHT22;2361;49.540;8.390;2022-10-16T04:32:50;16.50;99.90
4695;DHT22;2361;49.540;8.390;2022-10-16T04:35:19;16.40;99.90
4695;DHT22;2361;49.540;8.390;2022-10-16T04:37:47;16.50;99.90
4695;DHT22;2361;49.540;8.390;2022-10-16T04:40:14;16.50;99.90
4695;DHT22;2361;49.540;8.390;2022-10-16T04:42:41;16.50;99.90
4695;DHT22;2361;49.540;8.390;2022-10-16T04:45:08;16.50;99.90
4695;DHT22;2361;49.540;8.390;2022-10-16T04:47:38;16.50;99.90
4695;DHT22;2361;49.540;8.390;2022-10-16T04:50:06;16.50;99.90
4695;DHT22;2361;49.540;8.390;2022-10-16T04:52:33;16.50;99.90
4695;DHT22;2361;49.540;8.390;2022-10-16T04:55:05;16.50;99.90
4695;DHT22;2361;49.540;8.390;2022-10-16T04:57:33;16.50;99.90
4695;DHT22;2361;49.540;8.390;2022-10-16T05:00:00;16.50;99.90
4695;DHT22;2361;49.540;8.390;2022-10-16T05:02:27;16.50;99.90
4695;DHT22;2361;49.540;8.390;2022-10-16T05:04:54;16.50;99.90
4695;DHT22;2361;49.540;8.390;2022-10-16T05:07:21;16.50;99.90
4695;DHT22;2361;49.540;8.390;2022-10-16T05:09:47;16.50;99.90
4695;DHT22;2361;49.540;8.390;2022-10-16T05:12:14;16.50;99.90
4695;DHT22;2361;49.540;8.390;2022-10-16T05:14:41;16.50;99.90
4695;DHT22;2361;49.540;8.390;2022-10-16T05:17:08;16.50;99.90
4695;DHT22;2361;49.540;8.390;2022-10-16T05:19:35;16.40;99.90
4695;DHT22;2361;49.540;8.390;2022-10-16T05:22:02;16.30;99.90
4695;DHT22;2361;49.540;8.390;2022-10-16T05:24:29;16.30;99.90
4695;DHT22;2361;49.540;8.390;2022-10-16T05:26:56;16.30;99.90
4695;DHT22;2361;49.540;8.390;2022-10-16T05:29:23;16.30;99.90
4695;DHT22;2361;49.540;8.390;2022-10-16T05:31:54;16.40;99.90
4695;DHT22;2361;49.540;8.390;2022-10-16T05:34:21;16.40;99.90
4695;DHT22;2361;49.540;8.390;2022-10-16T05:36:48;16.40;99.90
4695;DHT22;2361;49.540;8.390;2022-10-16T05:39:15;16.40;99.90
4695;DHT22;2361;49.540;8.390;2022-10-16T05:41:43;16.40;99.90
4695;DHT22;2361;49.540;8.390;2022-10-16T05:44:10;16.40;99.90
4695;DHT22;2361;49.540;8.390;2022-10-16T05:46:37;16.50;99.90
4695;DHT22;2361;49.540;8.390;2022-10-16T05:49:04;16.40;99.90
4695;DHT22;2361;49.540;8.390;2022-10-16T05:51:31;16.50;99.90
4695;DHT22;2361;49.540;8.390;2022-10-16T05:53:58;16.50;99.90
4695;DHT22;2361;49.540;8.390;2022-10-16T05:56:25;16.50;99.90
4695;DHT22;2361;49.540;8.390;2022-10-16T05:58:52;16.60;99.90
4695;DHT22;2361;49.540;8.390;2022-10-16T06:01:19;16.50;99.90
4695;DHT22;2361;49.540;8.390;2022-10-16T06:03:47;16.60;99.90
4695;DHT22;2361;49.540;8.390;2022-10-16T06:06:20;16.50;99.90
4695;DHT22;2361;49.540;8.390;2022-10-16T06:08:49;16.60;99.90
4695;DHT22;2361;49.540;8.390;2022-10-16T06:11:27;16.50;99.90
4695;DHT22;2361;49.540;8.390;2022-10-16T06:13:57;16.60;99.90
4695;DHT22;2361;49.540;8.390;2022-10-16T06:16:26;16.60;99.90
4695;DHT22;2361;49.540;8.390;2022-10-16T06:18:54;16.60;99.90
4695;DHT22;2361;49.540;8.390;2022-10-16T06:21:26;16.60;99.90
4695;DHT22;2361;49.540;8.390;2022-10-16T06:23:54;16.60;99.90
4695;DHT22;2361;49.540;8.390;2022-10-16T06:26:28;16.60;99.90
4695;DHT22;2361;49.540;8.390;2022-10-16T06:28:57;16.60;99.90
4695;DHT22;2361;49.540;8.390;2022-10-16T06:31:25;16.70;99.90
4695;DHT22;2361;49.540;8.390;2022-10-16T06:33:55;16.70;99.90
4695;DHT22;2361;49.540;8.390;2022-10-16T06:36:23;16.70;99.90
4695;DHT22;2361;49.540;8.390;2022-10-16T06:38:51;16.70;99.90
4695;DHT22;2361;49.540;8.390;2022-10-16T06:41:20;16.70;99.90
4695;DHT22;2361;49.540;8.390;2022-10-16T06:43:48;16.70;99.90
4695;DHT22;2361;49.540;8.390;2022-10-16T06:46:18;16.70;99.90
4695;DHT22;2361;49.540;8.390;2022-10-16T06:48:47;16.70;99.90
4695;DHT22;2361;49.540;8.390;2022-10-16T06:51:16;16.70;99.90
4695;DHT22;2361;49.540;8.390;2022-10-16T06:53:48;16.70;99.90
4695;DHT22;2361;49.540;8.390;2022-10-16T06:56:32;16.70;99.90
4695;DHT22;2361;49.540;8.390;2022-10-16T06:59:00;16.80;99.90
4695;DHT22;2361;49.540;8.390;2022-10-16T07:01:27;16.80;99.90
4695;DHT22;2361;49.540;8.390;2022-10-16T07:03:55;16.80;99.90
4695;DHT22;2361;49.540;8.390;2022-10-16T07:06:24;16.80;99.90
4695;DHT22;2361;49.540;8.390;2022-10-16T07:08:51;16.80;99.90
4695;DHT22;2361;49.540;8.390;2022-10-16T07:11:21;16.90;99.90
4695;DHT22;2361;49.540;8.390;2022-10-16T07:13:50;16.90;99.90
4695;DHT22;2361;49.540;8.390;2022-10-16T07:16:26;16.90;99.90
4695;DHT22;2361;49.540;8.390;2022-10-16T07:18:55;16.90;99.90
4695;DHT22;2361;49.540;8.390;2022-10-16T07:21:27;17.00;99.90
4695;DHT22;2361;49.540;8.390;2022-10-16T07:23:59;16.90;99.90
4695;DHT22;2361;49.540;8.390;2022-10-16T07:26:30;16.90;99.90
4695;DHT22;2361;49.540;8.390;2022-10-16T07:28:58;16.90;99.90
4695;DHT22;2361;49.540;8.390;2022-10-16T07:31:25;16.90;99.90
4695;DHT22;2361;49.540;8.390;2022-10-16T07:33:53;17.00;99.90
4695;DHT22;2361;49.540;8.390;2022-10-16T07:36:21;17.00;99.90
4695;DHT22;2361;49.540;8.390;2022-10-16T07:38:48;17.00;99.90
4695;DHT22;2361;49.540;8.390;2022-10-16T07:41:19;17.00;99.90
4695;DHT22;2361;49.540;8.390;2022-10-16T07:43:47;17.00;99.90
4695;DHT22;2361;49.540;8.390;2022-10-16T07:46:16;16.90;99.90
4695;DHT22;2361;49.540;8.390;2022-10-16T07:48:44;16.90;99.90
4695;DHT22;2361;49.540;8.390;2022-10-16T07:51:15;16.90;99.90
4695;DHT22;2361;49.540;8.390;2022-10-16T07:53:44;16.90;99.90
4695;DHT22;2361;49.540;8.390;2022-10-16T07:56:12;16.80;99.90
4695;DHT22;2361;49.540;8.390;2022-10-16T07:58:40;16.80;99.90
4695;DHT22;2361;49.540;8.390;2022-10-16T08:01:09;16.90;99.90
4695;DHT22;2361;49.540;8.390;2022-10-16T08:03:37;16.80;99.90
4695;DHT22;2361;49.540;8.390;2022-10-16T08:06:05;16.90;99.90
4695;DHT22;2361;49.540;8.390;2022-10-16T08:08:32;16.90;99.90
4695;DHT22;2361;49.540;8.390;2022-10-16T08:10:59;17.00;99.90
4695;DHT22;2361;49.540;8.390;2022-10-16T08:13:26;16.90;99.90
4695;DHT22;2361;49.540;8.390;2022-10-16T08:15:54;16.90;99.90
4695;DHT22;2361;49.540;8.390;2022-10-16T08:18:22;16.90;99.90
4695;DHT22;2361;49.540;8.390;2022-10-16T08:20:58;16.90;99.90
4695;DHT22;2361;49.540;8.390;2022-10-16T08:23:27;17.00;99.90
4695;DHT22;2361;49.540;8.390;2022-10-16T08:25:55;17.00;99.90
4695;DHT22;2361;49.540;8.390;2022-10-16T08:28:27;17.00;99.90
4695;DHT22;2361;49.540;8.390;2022-10-16T08:30:54;16.90;99.90
4695;DHT22;2361;49.540;8.390;2022-10-16T08:33:23;17.00;99.90
4695;DHT22;2361;49.540;8.390;2022-10-16T08:35:53;16.90;99.90
4695;DHT22;2361;49.540;8.390;2022-10-16T08:38:20;16.90;99.90
4695;DHT22;2361;49.540;8.390;2022-10-16T08:40:48;17.00;99.90
4695;DHT22;2361;49.540;8.390;2022-10-16T08:43:44;17.00;99.90
4695;DHT22;2361;49.540;8.390;2022-10-16T08:49:31;16.80;99.90
4695;DHT22;2361;49.540;8.390;2022-10-16T08:51:58;16.60;99.90
4695;DHT22;2361;49.540;8.390;2022-10-16T08:54:35;16.50;99.90
4695;DHT22;2361;49.540;8.390;2022-10-16T08:57:11;16.40;99.90
4695;DHT22;2361;49.540;8.390;2022-10-16T08:59:44;16.40;99.90
4695;DHT22;2361;49.540;8.390;2022-10-16T09:08:17;16.60;99.90
4695;DHT22;2361;49.540;8.390;2022-10-16T09:11:18;16.70;99.90
4695;DHT22;2361;49.540;8.390;2022-10-16T09:14:17;16.80;99.90
4695;DHT22;2361;49.540;8.390;2022-10-16T09:17:00;16.90;99.90
4695;DHT22;2361;49.540;8.390;2022-10-16T09:19:46;17.10;99.90
4695;DHT22;2361;49.540;8.390;2022-10-16T09:22:26;17.30;99.90
4695;DHT22;2361;49.540;8.390;2022-10-16T09:25:01;17.50;99.90
4695;DHT22;2361;49.540;8.390;2022-10-16T09:27:38;17.60;99.90
4695;DHT22;2361;49.540;8.390;2022-10-16T09:30:13;17.90;99.90
4695;DHT22;2361;49.540;8.390;2022-10-16T09:32:43;18.10;99.90
4695;DHT22;2361;49.540;8.390;2022-10-16T09:35:22;18.20;99.90
4695;DHT22;2361;49.540;8.390;2022-10-16T09:37:58;18.30;99.90
4695;DHT22;2361;49.540;8.390;2022-10-16T09:40:31;18.70;99.90
4695;DHT22;2361;49.540;8.390;2022-10-16T09:45:43;21.00;99.90
4695;DHT22;2361;49.540;8.390;2022-10-16T09:48:22;22.20;99.90
4695;DHT22;2361;49.540;8.390;2022-10-16T09:51:03;22.60;99.90
4695;DHT22;2361;49.540;8.390;2022-10-16T09:53:45;22.80;99.90
4695;DHT22;2361;49.540;8.390;2022-10-16T09:56:25;25.00;99.90
4695;DHT22;2361;49.540;8.390;2022-10-16T09:58:59;28.20;99.90
4695;DHT22;2361;49.540;8.390;2022-10-16T10:01:31;31.20;99.90
4695;DHT22;2361;49.540;8.390;2022-10-16T10:04:05;32.90;97.40
4695;DHT22;2361;49.540;8.390;2022-10-16T10:06:37;34.30;93.30
4695;DHT22;2361;49.540;8.390;2022-10-16T10:09:21;34.60;89.90
4695;DHT22;2361;49.540;8.390;2022-10-16T10:12:03;35.10;83.80
4695;DHT22;2361;49.540;8.390;2022-10-16T10:14:39;36.10;81.70
4695;DHT22;2361;49.540;8.390;2022-10-16T10:19:58;38.60;71.50
4695;DHT22;2361;49.540;8.390;2022-10-16T10:34:07;34.40;72.20
4695;DHT22;2361;49.540;8.390;2022-10-16T10:36:50;32.10;76.20
4695;DHT22;2361;49.540;8.390;2022-10-16T10:39:44;30.10;82.30
4695;DHT22;2361;49.540;8.390;2022-10-16T10:45:48;27.00;95.80
4695;DHT22;2361;49.540;8.390;2022-10-16T10:48:32;26.00;99.90
4695;DHT22;2361;49.540;8.390;2022-10-16T10:51:21;25.40;99.90
4695;DHT22;2361;49.540;8.390;2022-10-16T10:54:13;24.60;99.90
4695;DHT22;2361;49.540;8.390;2022-10-16T11:03:13;23.20;99.90
4695;DHT22;2361;49.540;8.390;2022-10-16T11:05:59;22.80;99.90
4695;DHT22;2361;49.540;8.390;2022-10-16T11:08:41;22.50;99.90
4695;DHT22;2361;49.540;8.390;2022-10-16T11:11:29;22.20;99.90
4695;DHT22;2361;49.540;8.390;2022-10-16T11:14:15;22.00;99.90
4695;DHT22;2361;49.540;8.390;2022-10-16T11:17:09;21.70;99.90
4695;DHT22;2361;49.540;8.390;2022-10-16T11:20:11;21.50;99.90
4695;DHT22;2361;49.540;8.390;2022-10-16T11:22:44;21.40;99.90
4695;DHT22;2361;49.540;8.390;2022-10-16T11:25:27;21.40;99.90
4695;DHT22;2361;49.540;8.390;2022-10-16T11:30:52;21.30;99.90
4695;DHT22;2361;49.540;8.390;2022-10-16T11:33:39;21.20;99.90
4695;DHT22;2361;49.540;8.390;2022-10-16T11:41:44;21.10;99.90
4695;DHT22;2361;49.540;8.390;2022-10-16T11:44:20;21.00;99.90
4695;DHT22;2361;49.540;8.390;2022-10-16T11:47:35;21.00;99.90
4695;DHT22;2361;49.540;8.390;2022-10-16T11:56:20;21.20;99.90
4695;DHT22;2361;49.540;8.390;2022-10-16T12:01:46;21.60;99.90
4695;DHT22;2361;49.540;8.390;2022-10-16T12:04:31;21.80;99.90
4695;DHT22;2361;49.540;8.390;2022-10-16T12:07:09;21.90;99.90
4695;DHT22;2361;49.540;8.390;2022-10-16T12:09:40;22.00;99.90
4695;DHT22;2361;49.540;8.390;2022-10-16T12:12:26;22.00;99.90
4695;DHT22;2361;49.540;8.390;2022-10-16T12:15:02;22.00;99.90
4695;DHT22;2361;49.540;8.390;2022-10-16T12:17:48;21.90;99.90
4695;DHT22;2361;49.540;8.390;2022-10-16T12:20:26;21.80;99.90
4695;DHT22;2361;49.540;8.390;2022-10-16T12:23:03;21.80;99.90
4695;DHT22;2361;49.540;8.390;2022-10-16T12:25:36;21.80;99.90
4695;DHT22;2361;49.540;8.390;2022-10-16T12:28:20;21.80;99.90
4695;DHT22;2361;49.540;8.390;2022-10-16T12:31:05;21.80;99.90
4695;DHT22;2361;49.540;8.390;2022-10-16T12:33:40;21.80;99.90
4695;DHT22;2361;49.540;8.390;2022-10-16T12:36:32;21.80;99.90
4695;DHT22;2361;49.540;8.390;2022-10-16T12:39:01;21.80;99.90
4695;DHT22;2361;49.540;8.390;2022-10-16T12:41:33;21.80;99.90
4695;DHT22;2361;49.540;8.390;2022-10-16T12:44:02;21.80;99.90
4695;DHT22;2361;49.540;8.390;2022-10-16T12:51:43;21.90;99.90
4695;DHT22;2361;49.540;8.390;2022-10-16T13:07:48;22.10;99.90
4695;DHT22;2361;49.540;8.390;2022-10-16T13:10:25;22.00;99.90
4695;DHT22;2361;49.540;8.390;2022-10-16T13:13:14;21.90;99.90
4695;DHT22;2361;49.540;8.390;2022-10-16T13:19:28;21.60;99.90
4695;DHT22;2361;49.540;8.390;2022-10-16T13:22:11;21.50;99.90
4695;DHT22;2361;49.540;8.390;2022-10-16T13:24:55;21.50;99.90
4695;DHT22;2361;49.540;8.390;2022-10-16T13:27:55;21.40;99.90
4695;DHT22;2361;49.540;8.390;2022-10-16T13:30:28;21.40;99.90
4695;DHT22;2361;49.540;8.390;2022-10-16T13:35:51;21.40;99.90
4695;DHT22;2361;49.540;8.390;2022-10-16T13:38:25;21.30;99.90
4695;DHT22;2361;49.540;8.390;2022-10-16T13:41:00;21.30;99.90
4695;DHT22;2361;49.540;8.390;2022-10-16T13:43:38;21.30;99.90
4695;DHT22;2361;49.540;8.390;2022-10-16T13:46:16;21.30;99.90
4695;DHT22;2361;49.540;8.390;2022-10-16T13:48:44;21.30;99.90
4695;DHT22;2361;49.540;8.390;2022-10-16T13:51:17;21.30;99.90
4695;DHT22;2361;49.540;8.390;2022-10-16T13:53:45;21.30;99.90
4695;DHT22;2361;49.540;8.390;2022-10-16T13:56:14;21.40;99.90
4695;DHT22;2361;49.540;8.390;2022-10-16T13:58:43;21.40;99.90
4695;DHT22;2361;49.540;8.390;2022-10-16T14:01:19;21.40;99.90
4695;DHT22;2361;49.540;8.390;2022-10-16T14:03:53;21.30;99.90
4695;DHT22;2361;49.540;8.390;2022-10-16T14:06:21;21.40;99.90
4695;DHT22;2361;49.540;8.390;2022-10-16T14:08:59;21.30;99.90
4695;DHT22;2361;49.540;8.390;2022-10-16T14:11:48;21.20;99.90
4695;DHT22;2361;49.540;8.390;2022-10-16T14:14:19;21.20;99.90
4695;DHT22;2361;49.540;8.390;2022-10-16T14:16:46;21.10;99.90
4695;DHT22;2361;49.540;8.390;2022-10-16T14:19:25;21.10;99.90
4695;DHT22;2361;49.540;8.390;2022-10-16T14:21:54;21.10;99.90
4695;DHT22;2361;49.540;8.390;2022-10-16T14:24:33;21.00;99.90
4695;DHT22;2361;49.540;8.390;2022-10-16T14:27:01;21.00;99.90
4695;DHT22;2361;49.540;8.390;2022-10-16T14:29:29;20.90;99.90
4695;DHT22;2361;49.540;8.390;2022-10-16T14:32:06;20.90;99.90
4695;DHT22;2361;49.540;8.390;2022-10-16T14:34:53;20.80;99.90
4695;DHT22;2361;49.540;8.390;2022-10-16T14:37:27;20.80;99.90
4695;DHT22;2361;49.540;8.390;2022-10-16T14:39:55;20.70;99.90
4695;DHT22;2361;49.540;8.390;2022-10-16T14:42:30;20.70;99.90
4695;DHT22;2361;49.540;8.390;2022-10-16T14:44:57;20.70;99.90
4695;DHT22;2361;49.540;8.390;2022-10-16T14:47:26;20.70;99.90
4695;DHT22;2361;49.540;8.390;2022-10-16T14:49:54;20.70;99.90
4695;DHT22;2361;49.540;8.390;2022-10-16T14:52:22;20.70;99.90
4695;DHT22;2361;49.540;8.390;2022-10-16T14:54:50;20.70;99.90
4695;DHT22;2361;49.540;8.390;2022-10-16T14:57:19;20.70;99.90
4695;DHT22;2361;49.540;8.390;2022-10-16T14:59:49;20.70;99.90
4695;DHT22;2361;49.540;8.390;2022-10-16T15:04:48;20.70;99.90
4695;DHT22;2361;49.540;8.390;2022-10-16T15:07:15;20.70;99.90
4695;DHT22;2361;49.540;8.390;2022-10-16T15:09:42;20.70;99.90
4695;DHT22;2361;49.540;8.390;2022-10-16T15:12:14;20.80;99.90
4695;DHT22;2361;49.540;8.390;2022-10-16T15:14:41;20.80;99.90
4695;DHT22;2361;49.540;8.390;2022-10-16T15:17:11;20.80;99.90
4695;DHT22;2361;49.540;8.390;2022-10-16T15:19:39;20.80;99.90
4695;DHT22;2361;49.540;8.390;2022-10-16T15:22:05;20.80;99.90
4695;DHT22;2361;49.540;8.390;2022-10-16T15:24:32;20.80;99.90
4695;DHT22;2361;49.540;8.390;2022-10-16T15:26:59;20.70;99.90
4695;DHT22;2361;49.540;8.390;2022-10-16T15:29:26;20.70;99.90
4695;DHT22;2361;49.540;8.390;2022-10-16T15:31:53;20.60;99.90
4695;DHT22;2361;49.540;8.390;2022-10-16T15:34:20;20.60;99.90
4695;DHT22;2361;49.540;8.390;2022-10-16T15:36:47;20.60;99.90
4695;DHT22;2361;49.540;8.390;2022-10-16T15:39:17;20.60;99.90
4695;DHT22;2361;49.540;8.390;2022-10-16T15:41:47;20.50;99.90
4695;DHT22;2361;49.540;8.390;2022-10-16T15:44:20;20.60;99.90
4695;DHT22;2361;49.540;8.390;2022-10-16T15:46:49;20.50;99.90
4695;DHT22;2361;49.540;8.390;2022-10-16T15:49:16;20.50;99.90
4695;DHT22;2361;49.540;8.390;2022-10-16T15:51:43;20.50;99.90
4695;DHT22;2361;49.540;8.390;2022-10-16T15:54:10;20.50;99.90
4695;DHT22;2361;49.540;8.390;2022-10-16T15:56:37;20.40;99.90
4695;DHT22;2361;49.540;8.390;2022-10-16T15:59:06;20.40;99.90
4695;DHT22;2361;49.540;8.390;2022-10-16T16:01:34;20.40;99.90
4695;DHT22;2361;49.540;8.390;2022-10-16T16:04:02;20.40;99.90
4695;DHT22;2361;49.540;8.390;2022-10-16T16:06:36;20.30;99.90
4695;DHT22;2361;49.540;8.390;2022-10-16T16:09:05;20.30;99.90
4695;DHT22;2361;49.540;8.390;2022-10-16T16:11:32;20.20;99.90
4695;DHT22;2361;49.540;8.390;2022-10-16T16:14:07;20.20;99.90
4695;DHT22;2361;49.540;8.390;2022-10-16T16:16:37;20.10;99.90
4695;DHT22;2361;49.540;8.390;2022-10-16T16:19:05;20.00;99.90
4695;DHT22;2361;49.540;8.390;2022-10-16T16:21:37;20.00;99.90
4695;DHT22;2361;49.540;8.390;2022-10-16T16:24:05;19.90;99.90
4695;DHT22;2361;49.540;8.390;2022-10-16T16:26:35;19.90;99.90
4695;DHT22;2361;49.540;8.390;2022-10-16T16:29:06;19.80;99.90
4695;DHT22;2361;49.540;8.390;2022-10-16T16:31:33;19.70;99.90
4695;DHT22;2361;49.540;8.390;2022-10-16T16:34:01;19.70;99.90
4695;DHT22;2361;49.540;8.390;2022-10-16T16:36:28;19.60;99.90
4695;DHT22;2361;49.540;8.390;2022-10-16T16:38:55;19.60;99.90
4695;DHT22;2361;49.540;8.390;2022-10-16T16:41:25;19.60;99.90
4695;DHT22;2361;49.540;8.390;2022-10-16T16:43:54;19.60;99.90
4695;DHT22;2361;49.540;8.390;2022-10-16T16:46:21;19.50;99.90
4695;DHT22;2361;49.540;8.390;2022-10-16T16:48:49;19.40;99.90
4695;DHT22;2361;49.540;8.390;2022-10-16T16:51:17;19.40;99.90
4695;DHT22;2361;49.540;8.390;2022-10-16T16:53:50;19.40;99.90
4695;DHT22;2361;49.540;8.390;2022-10-16T16:56:19;19.40;99.90
4695;DHT22;2361;49.540;8.390;2022-10-16T16:58:48;19.40;99.90
4695;DHT22;2361;49.540;8.390;2022-10-16T17:01:17;19.30;99.90
4695;DHT22;2361;49.540;8.390;2022-10-16T17:03:47;19.30;99.90
4695;DHT22;2361;49.540;8.390;2022-10-16T17:06:16;19.30;99.90
4695;DHT22;2361;49.540;8.390;2022-10-16T17:08:46;19.20;99.90
4695;DHT22;2361;49.540;8.390;2022-10-16T17:11:18;19.20;99.90
4695;DHT22;2361;49.540;8.390;2022-10-16T17:13:48;19.20;99.90
4695;DHT22;2361;49.540;8.390;2022-10-16T17:16:18;19.10;99.90
4695;DHT22;2361;49.540;8.390;2022-10-16T17:18:45;19.10;99.90
4695;DHT22;2361;49.540;8.390;2022-10-16T17:21:12;19.00;99.90
4695;DHT22;2361;49.540;8.390;2022-10-16T17:23:39;19.00;99.90
4695;DHT22;2361;49.540;8.390;2022-10-16T17:26:09;19.00;99.90
4695;DHT22;2361;49.540;8.390;2022-10-16T17:28:41;18.90;99.90
4695;DHT22;2361;49.540;8.390;2022-10-16T17:31:32;18.90;99.90
4695;DHT22;2361;49.540;8.390;2022-10-16T17:34:01;18.90;99.90
4695;DHT22;2361;49.540;8.390;2022-10-16T17:36:31;18.80;99.90
4695;DHT22;2361;49.540;8.390;2022-10-16T17:39:02;18.80;99.90
4695;DHT22;2361;49.540;8.390;2022-10-16T17:41:34;18.70;99.90
4695;DHT22;2361;49.540;8.390;2022-10-16T17:44:03;18.70;99.90
4695;DHT22;2361;49.540;8.390;2022-10-16T17:46:31;18.70;99.90
4695;DHT22;2361;49.540;8.390;2022-10-16T17:49:02;18.60;99.90
4695;DHT22;2361;49.540;8.390;2022-10-16T17:51:30;18.60;99.90
4695;DHT22;2361;49.540;8.390;2022-10-16T17:53:59;18.60;99.90
4695;DHT22;2361;49.540;8.390;2022-10-16T17:56:27;18.50;99.90
4695;DHT22;2361;49.540;8.390;2022-10-16T17:58:57;18.50;99.90
4695;DHT22;2361;49.540;8.390;2022-10-16T18:01:30;18.50;99.90
4695;DHT22;2361;49.540;8.390;2022-10-16T18:04:03;18.40;99.90
4695;DHT22;2361;49.540;8.390;2022-10-16T18:06:33;18.40;99.90
4695;DHT22;2361;49.540;8.390;2022-10-16T18:09:00;18.40;99.90
4695;DHT22;2361;49.540;8.390;2022-10-16T18:11:28;18.40;99.90
4695;DHT22;2361;49.540;8.390;2022-10-16T18:13:57;18.40;99.90